Detalii statie RANDUNICA PREST ANDRID [00001984]

Toti senzorii

Date Temperatura solului [C]Precipitatii [mm]Voltaj baterie [mV]Leaf Wetness [Min]HC Air temperature [C]HC Relative humidity [%]Punctul de roua [C]
medieminmaxsumaultimatimpmedieminmaxmediemediemin
2018-10-13 16:00:00 14.5 14.2 14.8 0 7264 24.01 23.39 24.55 0 0 0
2018-10-13 17:00:00 15 14.7 15.2 0 7158 22.79 22.02 23.47 0 0 0
2018-10-13 18:00:00 15.2 15.2 15.4 0 7040 19.73 18.19 21.6 0 0 0
2018-10-13 19:00:00 15.2 15.1 15.3 0 6942 15.76 14.34 17.9 0 0 0
2018-10-13 20:00:00 15 14.9 15.3 0 6894 14 13.32 15.03 0 0 0
2018-10-13 21:00:00 14.7 14.6 14.9 0 6894 12.92 11.84 13.62 0 0 0
2018-10-13 22:00:00 14.4 14.2 14.6 0 6884 10.94 10.26 11.58 0 0 0
2018-10-13 23:00:00 14.1 14 14.3 0 6864 9.67 9.04 10.44 0 0 0
2018-10-14 00:00:00 13.8 13.7 14.1 0 6874 8.9 7.85 10.31 0 0 0
2018-10-14 01:00:00 13.6 13.4 13.8 0 6854 8.83 8.19 9.52 0 0 0
2018-10-14 02:00:00 13.3 13.2 13.5 0 6864 7.7 6.41 9.38 0 0 0
2018-10-14 03:00:00 13.1 12.9 13.3 0 6844 7.15 6.52 7.66 0 0 0
2018-10-14 04:00:00 12.8 12.5 13 0 6844 7.17 6.08 8.03 0 0 0
2018-10-14 05:00:00 12.6 12.4 12.8 0 6834 6.8 5.65 8.26 0 0 0
2018-10-14 06:00:00 12.3 12.3 12.5 0 6834 6.05 5.58 6.47 0 0 0
2018-10-14 07:00:00 12.2 12.1 12.4 0 6816 5.4 5.02 5.64 0 0 0
2018-10-14 08:00:00 11.9 11.8 12.1 0 6826 6.65 5.68 7.97 0 0 0
2018-10-14 09:00:00 11.7 11.7 11.9 0 6854 10.7 8.03 13.76 0 0 0
2018-10-14 10:00:00 11.7 11.6 11.9 0 6922 16 14.02 17.27 0 0 0
2018-10-14 11:00:00 11.7 11.6 11.9 0 7070 18.46 17.52 19.19 0 0 0
2018-10-14 12:00:00 11.9 11.8 12 0 7274 20.17 19.14 21.74 0 0 0
2018-10-14 13:00:00 12.1 11.9 12.4 0 7264 21.93 20.48 23.41 0 0 0
2018-10-14 14:00:00 12.6 12.4 13.1 0 7264 22.93 22.34 23.87 0 0 0
2018-10-14 15:00:00 13.4 13.1 13.9 0 7274 23.37 23.1 23.65 0 0 0
2018-10-14 16:00:00 14.1 13.9 14.4 0 7264 23.39 23.18 23.62 0 0 0
2018-10-14 17:00:00 14.6 14.5 14.9 0 7254 22.48 21.45 23.13 0 0 0
2018-10-14 18:00:00 14.8 14.7 14.9 0 7030 19.6 18.68 21.09 0 0 0
2018-10-14 19:00:00 14.7 14.6 14.9 0 7000 16.29 14.09 18.75 0 0 0
2018-10-14 20:00:00 14.5 14.4 14.7 0 6904 12.81 11.9 14.08 0 0 0
2018-10-14 21:00:00 14.2 14 14.5 0 6904 11.96 10.67 12.66 0 0 0
2018-10-14 22:00:00 13.8 13.6 14.1 0 6894 11.22 10.24 12.06 0 0 0
2018-10-14 23:00:00 13.6 13.5 13.8 0 6874 9.95 8.73 11.1 0 0 0
2018-10-15 00:00:00 13.2 13.1 13.5 0 6874 8.84 7.43 10.4 0 0 0
2018-10-15 01:00:00 13 12.9 13.2 0 6864 6.99 5.87 8.26 0 0 0
2018-10-15 02:00:00 12.8 12.7 12.9 0 6854 6.51 5.78 7.07 0 0 0
2018-10-15 03:00:00 12.5 12.3 12.8 0 6854 5.98 5.45 6.67 0 0 0
2018-10-15 04:00:00 12.3 12.1 12.4 0 6844 6.48 4.6 9.37 0 0 0
2018-10-15 05:00:00 12 11.8 12.3 0 6844 7.6 6.47 9.62 0 0 0
2018-10-15 06:00:00 11.8 11.7 12 0 6844 6.72 5.89 7.7 0 0 0
2018-10-15 07:00:00 11.6 11.5 11.8 0 6834 6.48 5.41 7.49 0 0 0
2018-10-15 08:00:00 11.4 11.2 11.5 0 6826 6.92 4.92 9.03 0 0 0
2018-10-15 09:00:00 11.2 11.1 11.4 0 6864 11.81 9.17 14.02 0 0 0
2018-10-15 10:00:00 11.2 11.1 11.3 0 6864 15 14.18 16.26 0 0 0
2018-10-15 11:00:00 11.2 11.1 11.3 0 7020 17.14 16.13 18 0 0 0
2018-10-15 12:00:00 11.3 11.2 11.5 0 7284 19.39 18.11 20.84 0 0 0
2018-10-15 13:00:00 11.6 11.5 11.7 0 7274 21.66 20.69 22.68 0 0 0
2018-10-15 14:00:00 12 11.7 12.5 0 7264 23.8 22.84 24.39 0 0 0
2018-10-15 15:00:00 12.9 12.5 13.5 0 7264 24.18 23.13 24.79 0 0 0